Main page
METAR-TAF:

METAR-TAF

Airports :

Pärnu Airport

Pärnu, Estonia

latitude: 58-25-09N, longitude: 024-28-22E, elevation: 14 m

Current weather observation

The report was made 1 hour and 18 minutes ago, at 11:50 UTC
Wind 3 kt from the Northeast, varying between North and East
Temperature 3°C
Humidity 70%
Pressure 1032 hPa
Visibility 10 km or more
Overcast at a height of 2500 ft

METAR: EEPU 211150Z 04003KT 360V090 9999 OVC025 03/M02 Q1032

Time: 15:08 (13:08 UTC)


TAF: missing

Weather observations and forecasts of more than 4000 airports (METAR and TAF reports).

The available stations are represented by yellow and red dots on the map.

Hover mouse over dot to see the name of the station.

Then click to see weather observations and forecasts.

To change the map : click on the green buttons with a black cross to zoom in, on the green button with a dash to zoom out, or on the green arrows for adjacent maps.


METAR-TAF: